Time;durP1;ratioP1;P1;durP2;ratioP2;P2;SDS_P1;SDS_P2;PMS_P1;PMS_P2;Temp;Humidity;BMP_temperature;BMP_pressure;BME280_temperature;BME280_humidity;BME280_pressure;Samples;Min_cycle;Max_cycle;Signal;HPM_P1;HPM_P2
2024/04/03 05:01:40;;;;;;;7.70;2.80;;;;;;;;;;5805709;23;20608;-77
2024/04/03 05:04:07;;;;;;;6.23;3.43;;;;;;;;;;4995244;28;20553;-78
2024/04/03 05:06:33;;;;;;;9.40;3.60;;;;;;;;;;4995617;28;20549;-78
2024/04/03 05:08:59;;;;;;;9.50;2.90;;;;;;;;;;4995663;28;20414;-78
2024/04/03 05:11:25;;;;;;;5.50;2.50;;;;;;;;;;5013218;28;20426;-78
2024/04/03 05:13:51;;;;;;;8.53;3.37;;;;;;;;;;5018105;23;20623;-77
2024/04/03 05:16:20;;;;;;;7.00;2.57;;;;;;;;;;5013062;28;20901;-77
2024/04/03 05:18:46;;;;;;;14.73;3.50;;;;;;;;;;5013560;28;20406;-76
2024/04/03 05:21:12;;;;;;;8.03;3.10;;;;;;;;;;5013687;28;20407;-77
2024/04/03 05:23:38;;;;;;;6.70;3.17;;;;;;;;;;5015628;28;20500;-78
2024/04/03 05:26:05;;;;;;;6.20;2.73;;;;;;;;;;5032457;28;20401;-77
2024/04/03 05:28:32;;;;;;;12.03;3.50;;;;;;;;;;5030572;28;20776;-78
2024/04/03 05:31:05;;;;;;;12.63;4.43;;;;;;;;;;5032573;28;20405;-78
2024/04/03 05:33:34;;;;;;;10.53;4.40;;;;;;;;;;5026356;28;20510;-78
2024/04/03 05:36:01;;;;;;;14.73;4.30;;;;;;;;;;5012562;28;20905;-78
2024/04/03 05:38:27;;;;;;;11.07;4.57;;;;;;;;;;5012732;28;20406;-78
2024/04/03 05:40:54;;;;;;;11.33;4.00;;;;;;;;;;5012749;28;20793;-77
2024/04/03 05:43:21;;;;;;;13.00;4.90;;;;;;;;;;5012029;28;20424;-77
2024/04/03 05:45:47;;;;;;;12.53;6.20;;;;;;;;;;5012327;28;20967;-77
2024/04/03 05:48:14;;;;;;;9.37;5.30;;;;;;;;;;5013445;28;20417;-77
2024/04/03 05:50:40;;;;;;;8.23;4.37;;;;;;;;;;5012483;28;20418;-75
2024/04/03 05:53:06;;;;;;;9.10;4.90;;;;;;;;;;5012546;28;20425;-76
2024/04/03 05:55:32;;;;;;;16.27;5.13;;;;;;;;;;5012518;28;20474;-74
2024/04/03 05:58:00;;;;;;;23.67;5.00;;;;;;;;;;5011983;28;20786;-75
2024/04/03 06:00:26;;;;;;;14.93;5.27;;;;;;;;;;5015872;28;20421;-74
2024/04/03 06:02:52;;;;;;;18.53;5.30;;;;;;;;;;5031877;28;20780;-74
2024/04/03 06:05:18;;;;;;;16.03;6.00;;;;;;;;;;5031378;28;20429;-76
2024/04/03 06:07:45;;;;;;;9.97;3.90;;;;;;;;;;5030182;28;20905;-73
2024/04/03 06:10:12;;;;;;;9.63;4.40;;;;;;;;;;5020883;28;20516;-74
2024/04/03 06:12:39;;;;;;;9.87;4.43;;;;;;;;;;5031835;28;20896;-74
2024/04/03 06:15:05;;;;;;;8.30;2.77;;;;;;;;;;5023832;28;20563;-74
2024/04/03 06:17:31;;;;;;;6.23;2.33;;;;;;;;;;5015128;28;20425;-73
2024/04/03 06:19:57;;;;;;;6.63;2.90;;;;;;;;;;5015191;28;20417;-74
2024/04/03 06:22:23;;;;;;;9.53;3.47;;;;;;;;;;5019516;28;20450;-75
2024/04/03 06:24:49;;;;;;;4.33;1.90;;;;;;;;;;5022431;28;20442;-75
2024/04/03 06:27:15;;;;;;;5.37;2.20;;;;;;;;;;4994100;28;20421;-74
2024/04/03 06:29:41;;;;;;;4.90;2.20;;;;;;;;;;5023351;28;20436;-73
2024/04/03 06:32:07;;;;;;;4.20;1.80;;;;;;;;;;5030010;28;20417;-74
2024/04/03 06:34:33;;;;;;;4.10;1.90;;;;;;;;;;5029643;28;20469;-75
2024/04/03 06:36:59;;;;;;;3.00;1.57;;;;;;;;;;5030171;28;20417;-73
2024/04/03 06:39:25;;;;;;;5.50;2.00;;;;;;;;;;5026883;28;20526;-74
2024/04/03 06:41:51;;;;;;;3.57;1.90;;;;;;;;;;5025602;28;20882;-73
2024/04/03 06:44:18;;;;;;;2.27;1.50;;;;;;;;;;5030716;28;20452;-72
2024/04/03 06:46:45;;;;;;;3.67;1.90;;;;;;;;;;5029271;28;20519;-73
2024/04/03 06:49:11;;;;;;;3.40;1.97;;;;;;;;;;5030952;28;20428;-74
2024/04/03 06:51:38;;;;;;;2.13;1.70;;;;;;;;;;5030463;28;20760;-72
2024/04/03 06:54:04;;;;;;;5.60;2.03;;;;;;;;;;5030510;28;20492;-73
2024/04/03 06:56:33;;;;;;;1.67;1.30;;;;;;;;;;5013011;28;20417;-73
2024/04/03 06:58:59;;;;;;;3.00;2.17;;;;;;;;;;5030239;28;20427;-76
2024/04/03 07:01:25;;;;;;;2.77;1.87;;;;;;;;;;5027841;28;20808;-74
2024/04/03 07:03:53;;;;;;;2.20;1.47;;;;;;;;;;5030613;28;20436;-75
2024/04/03 07:06:20;;;;;;;6.00;1.80;;;;;;;;;;5030091;28;20432;-72
2024/04/03 07:08:46;;;;;;;3.40;1.50;;;;;;;;;;5030765;28;20421;-73
2024/04/03 07:11:12;;;;;;;3.33;1.47;;;;;;;;;;5016284;28;20754;-73
2024/04/03 07:13:38;;;;;;;5.20;1.30;;;;;;;;;;5014605;28;20806;-72
2024/04/03 07:16:04;;;;;;;4.43;2.37;;;;;;;;;;5027702;28;20512;-73
2024/04/03 07:18:30;;;;;;;6.10;1.50;;;;;;;;;;5029869;28;20471;-73
2024/04/03 07:20:57;;;;;;;7.83;1.90;;;;;;;;;;5018655;28;20410;-72
2024/04/03 07:23:25;;;;;;;1.87;1.40;;;;;;;;;;5015077;28;20523;-72
2024/04/03 07:25:52;;;;;;;1.93;1.60;;;;;;;;;;5015800;28;20433;-72
2024/04/03 07:28:18;;;;;;;1.47;1.30;;;;;;;;;;5030031;28;20418;-73
2024/04/03 07:30:44;;;;;;;7.40;1.70;;;;;;;;;;5021621;28;20897;-72
2024/04/03 07:33:10;;;;;;;2.07;1.50;;;;;;;;;;5026029;28;20866;-74
2024/04/03 07:35:36;;;;;;;3.60;2.00;;;;;;;;;;5019783;28;20974;-72
2024/04/03 07:38:04;;;;;;;3.40;2.00;;;;;;;;;;5020622;28;20418;-73
2024/04/03 07:40:30;;;;;;;5.63;2.23;;;;;;;;;;5015248;28;20421;-74
2024/04/03 07:42:56;;;;;;;2.90;1.60;;;;;;;;;;5014698;28;20414;-75
2024/04/03 07:45:22;;;;;;;5.10;1.90;;;;;;;;;;5014288;28;20441;-73
2024/04/03 07:47:49;;;;;;;4.93;2.70;;;;;;;;;;5021561;28;20958;-73
2024/04/03 07:50:15;;;;;;;4.93;1.70;;;;;;;;;;5030642;28;20429;-74
2024/04/03 07:52:42;;;;;;;3.50;1.53;;;;;;;;;;5022057;28;20417;-74
2024/04/03 07:55:08;;;;;;;6.73;2.10;;;;;;;;;;5023643;28;20980;-74
2024/04/03 07:57:34;;;;;;;3.67;1.50;;;;;;;;;;5015401;28;20496;-75
2024/04/03 08:00:03;;;;;;;4.53;1.60;;;;;;;;;;5014791;28;20765;-75
2024/04/03 08:02:30;;;;;;;3.00;1.73;;;;;;;;;;5015734;28;20675;-75
2024/04/03 08:04:56;;;;;;;5.13;2.50;;;;;;;;;;5022459;28;20433;-74
2024/04/03 08:07:22;;;;;;;6.03;2.47;;;;;;;;;;5028062;28;20425;-73
2024/04/03 08:09:48;;;;;;;3.90;1.67;;;;;;;;;;5015775;28;20823;-73
2024/04/03 08:12:14;;;;;;;4.93;1.40;;;;;;;;;;5014789;28;20418;-73
2024/04/03 08:14:39;;;;;;;3.20;1.37;;;;;;;;;;5013556;28;20504;-73
2024/04/03 08:17:08;;;;;;;3.57;1.93;;;;;;;;;;5027945;28;20410;-76
2024/04/03 08:19:34;;;;;;;3.97;1.50;;;;;;;;;;5022560;28;20917;-75
2024/04/03 08:22:00;;;;;;;10.53;1.57;;;;;;;;;;5014122;28;20418;-74
2024/04/03 08:24:26;;;;;;;3.60;2.27;;;;;;;;;;5025213;28;20873;-75
2024/04/03 08:26:54;;;;;;;3.23;1.97;;;;;;;;;;5026431;28;20436;-75
2024/04/03 08:29:21;;;;;;;3.83;2.03;;;;;;;;;;5027942;28;20429;-75
2024/04/03 08:31:47;;;;;;;3.17;1.70;;;;;;;;;;5015262;28;20435;-74
2024/04/03 08:34:13;;;;;;;4.37;1.63;;;;;;;;;;5022423;28;20469;-74
2024/04/03 08:36:39;;;;;;;5.87;1.60;;;;;;;;;;5033358;28;20415;-75
2024/04/03 08:39:06;;;;;;;4.03;1.67;;;;;;;;;;5015271;28;20424;-74
2024/04/03 08:41:34;;;;;;;3.20;2.10;;;;;;;;;;5022390;28;20541;-75
2024/04/03 08:44:00;;;;;;;4.20;2.77;;;;;;;;;;5019085;28;20456;-75
2024/04/03 08:46:29;;;;;;;9.43;2.80;;;;;;;;;;5011792;28;20936;-75
2024/04/03 08:48:56;;;;;;;9.83;2.83;;;;;;;;;;5023000;28;20431;-75
2024/04/03 08:51:23;;;;;;;4.00;2.20;;;;;;;;;;5018462;28;20472;-76
2024/04/03 08:53:49;;;;;;;4.83;2.23;;;;;;;;;;5016317;28;20634;-76
2024/04/03 08:56:16;;;;;;;4.20;2.20;;;;;;;;;;5030884;28;20423;-76
2024/04/03 08:58:43;;;;;;;5.97;2.20;;;;;;;;;;5013437;28;20468;-76
2024/04/03 09:01:09;;;;;;;5.33;1.87;;;;;;;;;;5014924;28;20988;-74
2024/04/03 09:03:35;;;;;;;5.43;2.13;;;;;;;;;;5032372;28;20409;-74
2024/04/03 09:06:01;;;;;;;4.73;2.20;;;;;;;;;;5029023;28;20887;-75
2024/04/03 09:08:26;;;;;;;5.37;1.90;;;;;;;;;;5032100;28;20425;-75
2024/04/03 09:10:57;;;;;;;6.20;2.40;;;;;;;;;;5032846;28;20417;-75
2024/04/03 09:13:23;;;;;;;10.17;2.07;;;;;;;;;;5032614;28;20494;-75
2024/04/03 09:15:52;;;;;;;3.13;1.90;;;;;;;;;;5032335;28;20461;-75
2024/04/03 09:18:19;;;;;;;2.90;1.57;;;;;;;;;;5014202;28;20441;-76
2024/04/03 09:20:47;;;;;;;6.77;2.50;;;;;;;;;;5012613;28;20410;-76
2024/04/03 09:23:13;;;;;;;2.33;1.90;;;;;;;;;;5020449;28;20432;-76
2024/04/03 09:25:40;;;;;;;5.10;2.10;;;;;;;;;;5001002;28;20500;-75
2024/04/03 09:28:07;;;;;;;4.00;1.93;;;;;;;;;;4995307;28;20509;-75
2024/04/03 09:30:33;;;;;;;6.03;2.53;;;;;;;;;;5017093;28;20458;-75
2024/04/03 09:33:00;;;;;;;13.60;2.87;;;;;;;;;;5014054;28;20418;-75
2024/04/03 09:35:30;;;;;;;7.93;2.90;;;;;;;;;;5013712;28;20560;-74
2024/04/03 09:37:56;;;;;;;5.50;2.27;;;;;;;;;;5019422;28;20409;-74
2024/04/03 09:40:29;;;;;;;14.97;2.93;;;;;;;;;;5032125;28;20475;-74
2024/04/03 09:42:57;;;;;;;7.10;2.20;;;;;;;;;;5019726;28;20426;-75
2024/04/03 09:45:24;;;;;;;4.03;2.20;;;;;;;;;;5011953;28;20441;-74
2024/04/03 09:47:54;;;;;;;9.53;2.57;;;;;;;;;;5022515;28;20754;-75
2024/04/03 09:50:20;;;;;;;5.23;2.17;;;;;;;;;;5012381;28;20508;-74
2024/04/03 09:52:47;;;;;;;5.10;2.57;;;;;;;;;;5013868;28;20457;-75
2024/04/03 09:55:13;;;;;;;8.73;2.63;;;;;;;;;;5026644;28;20521;-75
2024/04/03 09:57:39;;;;;;;4.93;1.73;;;;;;;;;;5020700;28;20416;-76
2024/04/03 10:00:06;;;;;;;5.10;1.80;;;;;;;;;;5015083;28;20433;-75
2024/04/03 10:02:32;;;;;;;5.93;2.07;;;;;;;;;;5000068;28;20436;-76
2024/04/03 10:04:58;;;;;;;3.37;2.03;;;;;;;;;;5020365;28;20465;-76
2024/04/03 10:07:27;;;;;;;5.27;2.10;;;;;;;;;;5025260;28;20832;-75
2024/04/03 10:09:54;;;;;;;6.40;2.00;;;;;;;;;;5012116;28;20426;-75
2024/04/03 10:12:22;;;;;;;3.40;1.90;;;;;;;;;;5010054;28;20460;-75
2024/04/03 10:14:57;;;;;;;7.20;1.43;;;;;;;;;;5017549;28;20833;-74
2024/04/03 10:17:23;;;;;;;4.17;1.90;;;;;;;;;;5011682;28;20414;-73
2024/04/03 10:19:58;;;;;;;3.87;2.20;;;;;;;;;;5012404;28;20484;-74
2024/04/03 10:22:28;;;;;;;4.47;1.87;;;;;;;;;;5011784;28;20500;-74
2024/04/03 10:24:54;;;;;;;5.40;2.27;;;;;;;;;;5014195;28;20513;-74
2024/04/03 10:27:20;;;;;;;2.50;1.60;;;;;;;;;;5014224;28;20870;-73
2024/04/03 10:29:46;;;;;;;3.30;1.33;;;;;;;;;;5011951;28;20438;-75
2024/04/03 10:32:15;;;;;;;3.53;1.47;;;;;;;;;;5013669;28;20936;-75
2024/04/03 10:34:41;;;;;;;1.33;1.10;;;;;;;;;;5014006;28;20532;-74
2024/04/03 10:37:10;;;;;;;5.60;1.57;;;;;;;;;;5011776;28;20410;-74
2024/04/03 10:39:36;;;;;;;3.03;1.63;;;;;;;;;;5011778;28;20409;-75
2024/04/03 10:42:04;;;;;;;2.63;1.30;;;;;;;;;;5026758;28;20416;-76
2024/04/03 10:44:30;;;;;;;3.80;1.10;;;;;;;;;;5018087;28;20775;-76
2024/04/03 10:47:06;;;;;;;1.10;1.00;;;;;;;;;;5016083;28;20409;-75
2024/04/03 10:49:32;;;;;;;1.30;1.00;;;;;;;;;;5016238;28;20422;-76
2024/04/03 10:51:58;;;;;;;2.50;1.07;;;;;;;;;;5016773;28;20429;-77
2024/04/03 10:54:26;;;;;;;2.10;1.93;;;;;;;;;;5021534;28;20556;-75
2024/04/03 10:56:52;;;;;;;1.10;1.10;;;;;;;;;;5018953;28;20421;-75
2024/04/03 10:59:18;;;;;;;1.83;1.10;;;;;;;;;;5030320;28;20413;-73
2024/04/03 11:01:44;;;;;;;1.63;1.10;;;;;;;;;;5037249;28;20441;-71
2024/04/03 11:04:11;;;;;;;2.00;1.20;;;;;;;;;;5025252;28;20437;-76
2024/04/03 11:06:40;;;;;;;1.10;1.07;;;;;;;;;;5017805;28;20452;-74
2024/04/03 11:09:07;;;;;;;5.33;1.23;;;;;;;;;;5018977;28;20968;-74
2024/04/03 11:11:33;;;;;;;11.07;1.20;;;;;;;;;;5021542;28;20422;-73
2024/04/03 11:13:59;;;;;;;2.03;0.83;;;;;;;;;;5017092;28;20450;-73
2024/04/03 11:16:25;;;;;;;1.33;1.20;;;;;;;;;;5022465;28;20780;-73
2024/04/03 11:18:51;;;;;;;1.00;0.83;;;;;;;;;;5017235;28;20426;-72
2024/04/03 11:21:17;;;;;;;1.97;1.30;;;;;;;;;;5030147;28;20865;-72
2024/04/03 11:23:43;;;;;;;4.50;0.97;;;;;;;;;;5023262;28;20471;-75
2024/04/03 11:26:09;;;;;;;1.77;1.10;;;;;;;;;;5034346;28;20415;-74
2024/04/03 11:28:35;;;;;;;3.90;1.60;;;;;;;;;;5021833;28;20488;-74
2024/04/03 11:31:01;;;;;;;12.30;3.30;;;;;;;;;;5022827;28;20814;-73
2024/04/03 11:33:31;;;;;;;12.97;2.50;;;;;;;;;;5014887;28;20429;-74
2024/04/03 11:35:57;;;;;;;23.43;4.00;;;;;;;;;;5025673;28;20456;-75
2024/04/03 11:38:25;;;;;;;4.63;2.17;;;;;;;;;;5034312;28;20410;-75
2024/04/03 11:40:51;;;;;;;3.60;1.37;;;;;;;;;;5019193;28;20417;-75
2024/04/03 11:43:17;;;;;;;2.83;1.00;;;;;;;;;;5022088;28;20425;-74
2024/04/03 11:45:43;;;;;;;4.83;1.00;;;;;;;;;;5026935;28;20421;-75
2024/04/03 11:48:09;;;;;;;1.10;1.00;;;;;;;;;;5034381;28;20474;-76
2024/04/03 11:50:35;;;;;;;1.60;1.20;;;;;;;;;;5024219;28;20422;-76
2024/04/03 11:53:01;;;;;;;5.30;1.17;;;;;;;;;;5030562;28;20413;-76
2024/04/03 11:55:27;;;;;;;3.30;1.20;;;;;;;;;;5016188;28;20988;-75
2024/04/03 11:57:53;;;;;;;1.80;1.17;;;;;;;;;;5022453;28;20413;-76
2024/04/03 12:00:19;;;;;;;1.43;1.00;;;;;;;;;;5014238;28;20909;-76
2024/04/03 12:02:45;;;;;;;0.90;0.83;;;;;;;;;;5031068;28;20910;-74
2024/04/03 12:05:10;;;;;;;1.70;1.03;;;;;;;;;;5024610;28;20441;-74
2024/04/03 12:07:37;;;;;;;1.73;0.90;;;;;;;;;;5032419;28;20421;-74
2024/04/03 12:10:10;;;;;;;2.20;0.90;;;;;;;;;;5025890;28;20421;-76
2024/04/03 12:12:37;;;;;;;2.50;0.90;;;;;;;;;;5029444;28;20421;-76
2024/04/03 12:15:04;;;;;;;1.30;0.83;;;;;;;;;;5019356;28;20607;-75
2024/04/03 12:17:31;;;;;;;3.97;1.40;;;;;;;;;;5024055;28;20418;-74
2024/04/03 12:22:23;;;;;;;1.10;1.00;;;;;;;;;;5034377;28;20414;-75
2024/04/03 12:24:50;;;;;;;1.57;1.30;;;;;;;;;;5033137;28;20468;-74
2024/04/03 12:27:16;;;;;;;1.50;1.10;;;;;;;;;;5024200;28;20449;-75
2024/04/03 12:29:42;;;;;;;1.03;0.97;;;;;;;;;;5013569;28;20437;-75
2024/04/03 12:32:08;;;;;;;1.03;0.90;;;;;;;;;;5014819;28;20421;-74
2024/04/03 12:34:34;;;;;;;0.93;0.90;;;;;;;;;;5024134;28;20523;-75
2024/04/03 12:37:00;;;;;;;1.70;1.00;;;;;;;;;;5014934;28;20553;-75
2024/04/03 12:39:25;;;;;;;0.90;0.77;;;;;;;;;;5031596;28;20417;-75
2024/04/03 12:41:51;;;;;;;0.80;0.80;;;;;;;;;;5022980;28;20446;-76
2024/04/03 12:44:18;;;;;;;4.73;1.10;;;;;;;;;;5030594;28;20444;-76
2024/04/03 12:46:43;;;;;;;2.93;1.10;;;;;;;;;;5029182;28;20924;-76
2024/04/03 12:49:09;;;;;;;1.37;1.10;;;;;;;;;;5032111;28;20441;-76
2024/04/03 12:51:35;;;;;;;1.50;1.10;;;;;;;;;;5031292;28;20504;-73
2024/04/03 12:54:01;;;;;;;2.77;1.53;;;;;;;;;;5032849;28;20521;-77
2024/04/03 12:56:27;;;;;;;18.07;2.30;;;;;;;;;;5033170;28;20413;-74
2024/04/03 12:58:55;;;;;;;2.53;1.20;;;;;;;;;;5032788;28;20504;-74
2024/04/03 13:01:21;;;;;;;2.73;0.90;;;;;;;;;;5031537;28;20551;-74
2024/04/03 13:03:47;;;;;;;0.80;0.80;;;;;;;;;;5032566;28;20452;-74
2024/04/03 13:06:13;;;;;;;1.43;1.10;;;;;;;;;;5032706;28;20423;-75
2024/04/03 13:08:39;;;;;;;0.93;0.90;;;;;;;;;;5019847;28;20827;-75
2024/04/03 13:11:06;;;;;;;1.30;0.80;;;;;;;;;;5015867;28;20426;-76
2024/04/03 13:13:33;;;;;;;1.00;0.80;;;;;;;;;;5015216;28;20433;-75
2024/04/03 13:16:01;;;;;;;2.00;1.17;;;;;;;;;;5033019;28;20515;-75
2024/04/03 13:18:27;;;;;;;4.70;1.00;;;;;;;;;;5033796;28;20414;-74
2024/04/03 13:20:56;;;;;;;1.67;1.10;;;;;;;;;;5032609;28;20404;-74
2024/04/03 13:23:22;;;;;;;1.30;1.10;;;;;;;;;;5013859;28;20508;-73
2024/04/03 13:25:49;;;;;;;0.80;0.70;;;;;;;;;;5013451;28;20442;-73
2024/04/03 13:28:15;;;;;;;1.57;0.90;;;;;;;;;;5013314;28;20425;-74
2024/04/03 13:30:41;;;;;;;0.80;0.70;;;;;;;;;;5013282;28;20441;-75
2024/04/03 13:33:07;;;;;;;1.10;0.90;;;;;;;;;;5016672;28;20453;-76
2024/04/03 13:35:33;;;;;;;0.80;0.70;;;;;;;;;;5019062;28;20473;-76
2024/04/03 13:37:59;;;;;;;2.40;0.93;;;;;;;;;;5031951;28;20431;-76
2024/04/03 13:40:25;;;;;;;1.17;1.13;;;;;;;;;;5029779;28;20464;-74
2024/04/03 13:42:52;;;;;;;1.97;1.20;;;;;;;;;;5031292;28;21019;-74
2024/04/03 13:45:18;;;;;;;1.03;0.80;;;;;;;;;;5027133;28;20523;-75
2024/04/03 13:47:44;;;;;;;1.37;1.07;;;;;;;;;;5013472;28;20421;-74
2024/04/03 13:50:11;;;;;;;1.40;1.37;;;;;;;;;;5032102;28;20417;-75
2024/04/03 13:52:37;;;;;;;1.80;1.30;;;;;;;;;;5014634;28;20457;-74
2024/04/03 13:55:03;;;;;;;1.37;1.20;;;;;;;;;;5031873;28;20858;-75
2024/04/03 13:57:28;;;;;;;2.67;1.07;;;;;;;;;;5031905;28;20452;-73
2024/04/03 13:59:55;;;;;;;1.17;1.07;;;;;;;;;;5032140;28;20425;-75
2024/04/03 14:02:21;;;;;;;2.83;1.10;;;;;;;;;;5032172;28;20441;-76
2024/04/03 14:04:47;;;;;;;1.07;0.90;;;;;;;;;;5031838;28;20540;-76
2024/04/03 14:07:13;;;;;;;1.53;1.17;;;;;;;;;;5032397;28;20417;-77
2024/04/03 14:09:39;;;;;;;0.90;0.87;;;;;;;;;;5032232;28;20424;-76
2024/04/03 14:12:05;;;;;;;1.10;1.00;;;;;;;;;;5031706;28;20427;-75
2024/04/03 14:14:31;;;;;;;1.53;1.13;;;;;;;;;;5029519;28;20554;-76
2024/04/03 14:16:57;;;;;;;1.43;1.37;;;;;;;;;;5031469;28;20444;-75
2024/04/03 14:19:23;;;;;;;1.30;1.20;;;;;;;;;;5033659;28;20413;-76
2024/04/03 14:21:49;;;;;;;1.40;1.07;;;;;;;;;;5035628;28;20421;-75
2024/04/03 14:24:15;;;;;;;3.97;1.83;;;;;;;;;;5030638;28;20921;-75
2024/04/03 14:26:41;;;;;;;1.57;1.50;;;;;;;;;;5015599;28;20449;-75
2024/04/03 14:29:07;;;;;;;1.30;1.20;;;;;;;;;;5026739;28;20456;-75
2024/04/03 14:31:33;;;;;;;1.97;1.20;;;;;;;;;;5035637;28;20447;-75
2024/04/03 14:33:59;;;;;;;1.60;1.40;;;;;;;;;;5026173;28;20436;-75
2024/04/03 14:36:25;;;;;;;1.73;1.30;;;;;;;;;;5016960;28;20424;-75
2024/04/03 14:38:51;;;;;;;2.50;1.20;;;;;;;;;;5015825;28;20944;-75
2024/04/03 14:41:18;;;;;;;1.50;1.20;;;;;;;;;;5025689;28;20405;-74
2024/04/03 14:43:44;;;;;;;2.03;1.10;;;;;;;;;;5029178;28;20864;-75
2024/04/03 14:46:11;;;;;;;3.03;1.10;;;;;;;;;;5014060;28;20500;-74
2024/04/03 14:48:40;;;;;;;1.50;1.40;;;;;;;;;;5015447;28;20627;-75
2024/04/03 14:51:08;;;;;;;4.60;1.70;;;;;;;;;;5015398;28;20410;-76
2024/04/03 14:53:34;;;;;;;1.60;1.50;;;;;;;;;;5015491;28;20898;-75
2024/04/03 14:56:00;;;;;;;3.13;2.30;;;;;;;;;;5021664;28;20479;-75
2024/04/03 14:58:29;;;;;;;1.77;1.33;;;;;;;;;;5015554;28;20823;-74
2024/04/03 15:00:55;;;;;;;1.40;1.30;;;;;;;;;;5025268;28;20420;-76
2024/04/03 15:03:21;;;;;;;4.30;0.97;;;;;;;;;;5035067;28;20401;-75
2024/04/03 15:05:47;;;;;;;6.90;1.40;;;;;;;;;;5033176;28;20428;-75
2024/04/03 15:08:13;;;;;;;3.40;1.70;;;;;;;;;;5017160;28;20729;-76
2024/04/03 15:10:39;;;;;;;3.80;1.83;;;;;;;;;;5033058;28;20425;-75
2024/04/03 15:13:05;;;;;;;2.33;1.33;;;;;;;;;;5034657;28;20781;-75
2024/04/03 15:15:32;;;;;;;2.00;1.20;;;;;;;;;;5020539;28;21008;-76
2024/04/03 15:18:00;;;;;;;1.80;1.30;;;;;;;;;;5015458;28;20430;-73
2024/04/03 15:20:26;;;;;;;3.30;1.70;;;;;;;;;;5015573;28;20403;-73
2024/04/03 15:22:52;;;;;;;2.27;1.77;;;;;;;;;;5023979;28;20418;-75
2024/04/03 15:25:18;;;;;;;4.67;2.40;;;;;;;;;;5034305;28;20448;-74
2024/04/03 15:27:44;;;;;;;3.20;1.40;;;;;;;;;;5034863;28;20415;-75
2024/04/03 15:30:11;;;;;;;2.17;1.50;;;;;;;;;;5033621;28;20421;-74
2024/04/03 15:32:37;;;;;;;1.27;1.20;;;;;;;;;;5040396;28;20405;-74
2024/04/03 15:35:05;;;;;;;1.87;1.30;;;;;;;;;;5034424;28;20471;-74
2024/04/03 15:37:31;;;;;;;2.47;1.30;;;;;;;;;;5035005;28;20411;-75
2024/04/03 15:39:58;;;;;;;2.37;1.80;;;;;;;;;;5034488;28;20524;-76
2024/04/03 15:42:24;;;;;;;2.93;1.93;;;;;;;;;;5034153;28;20463;-74
2024/04/03 15:44:51;;;;;;;1.30;1.20;;;;;;;;;;5033584;28;20433;-74
2024/04/03 15:47:17;;;;;;;1.10;1.10;;;;;;;;;;5034671;28;20412;-75
2024/04/03 15:49:43;;;;;;;1.30;1.00;;;;;;;;;;5034645;28;20444;-75
2024/04/03 15:52:09;;;;;;;1.23;1.13;;;;;;;;;;5034478;28;20427;-75
2024/04/03 15:54:35;;;;;;;1.93;1.40;;;;;;;;;;5028176;28;20552;-75
2024/04/03 15:57:02;;;;;;;1.30;1.20;;;;;;;;;;5014385;28;20410;-76
2024/04/03 15:59:28;;;;;;;2.90;2.00;;;;;;;;;;5021693;28;20412;-76
2024/04/03 16:01:54;;;;;;;4.23;2.20;;;;;;;;;;5034145;28;20413;-75
2024/04/03 16:04:20;;;;;;;2.20;1.17;;;;;;;;;;5030436;28;20486;-75
2024/04/03 16:06:46;;;;;;;1.50;1.40;;;;;;;;;;5026257;28;20893;-75
2024/04/03 16:09:15;;;;;;;2.00;1.40;;;;;;;;;;5032779;28;20571;-75
2024/04/03 16:11:43;;;;;;;2.63;1.43;;;;;;;;;;5015140;28;20457;-74
2024/04/03 16:14:09;;;;;;;2.43;1.63;;;;;;;;;;5028431;28;20491;-74
2024/04/03 16:16:35;;;;;;;2.40;1.23;;;;;;;;;;5033984;28;20500;-76
2024/04/03 16:19:01;;;;;;;1.83;1.30;;;;;;;;;;5021618;28;20906;-76
2024/04/03 16:21:27;;;;;;;1.73;1.60;;;;;;;;;;5015357;28;20913;-75
2024/04/03 16:23:53;;;;;;;3.57;2.17;;;;;;;;;;5004283;28;20462;-75
2024/04/03 16:26:19;;;;;;;2.67;1.67;;;;;;;;;;4996663;28;20500;-75
2024/04/03 16:28:45;;;;;;;2.20;1.87;;;;;;;;;;5022177;28;20422;-75
2024/04/03 16:31:11;;;;;;;2.20;1.37;;;;;;;;;;5033293;28;20411;-76
2024/04/03 16:33:37;;;;;;;2.27;1.60;;;;;;;;;;5027326;28;20477;-75
2024/04/03 16:36:04;;;;;;;3.27;1.90;;;;;;;;;;5016104;28;20496;-75
2024/04/03 16:38:29;;;;;;;2.07;1.63;;;;;;;;;;5013156;28;20418;-74
2024/04/03 16:40:55;;;;;;;2.00;1.80;;;;;;;;;;5013682;28;20414;-74
2024/04/03 16:43:22;;;;;;;2.60;1.80;;;;;;;;;;5009072;28;20413;-75
2024/04/03 16:45:48;;;;;;;4.83;1.90;;;;;;;;;;5014162;28;20421;-76
2024/04/03 16:48:14;;;;;;;2.50;1.50;;;;;;;;;;5032587;28;20832;-74
2024/04/03 16:50:41;;;;;;;2.53;1.53;;;;;;;;;;5031330;28;20417;-76
2024/04/03 16:53:06;;;;;;;4.00;2.00;;;;;;;;;;5022559;28;20499;-77
2024/04/03 16:55:33;;;;;;;6.07;3.33;;;;;;;;;;5017026;28;20508;-76
2024/04/03 16:58:00;;;;;;;5.20;2.90;;;;;;;;;;5032975;28;20464;-76
2024/04/03 17:00:26;;;;;;;2.83;1.63;;;;;;;;;;5032908;28;20422;-76
2024/04/03 17:02:52;;;;;;;2.20;1.90;;;;;;;;;;5032619;28;20417;-76
2024/04/03 17:05:18;;;;;;;2.77;2.50;;;;;;;;;;5032735;28;20933;-76
2024/04/03 17:07:44;;;;;;;3.63;2.13;;;;;;;;;;5033088;28;20409;-77
2024/04/03 17:10:12;;;;;;;3.50;1.63;;;;;;;;;;5032990;28;20463;-76
2024/04/03 17:12:38;;;;;;;2.87;1.70;;;;;;;;;;5017912;28;20453;-77
2024/04/03 17:15:04;;;;;;;3.60;1.33;;;;;;;;;;5012475;28;20509;-77
2024/04/03 17:17:30;;;;;;;3.10;1.70;;;;;;;;;;5013029;28;20406;-77
2024/04/03 17:19:56;;;;;;;14.53;2.40;;;;;;;;;;5013042;28;20501;-76
2024/04/03 17:22:25;;;;;;;5.40;1.83;;;;;;;;;;5014222;28;20955;-76
2024/04/03 17:24:52;;;;;;;3.37;1.90;;;;;;;;;;5011284;28;20957;-75
2024/04/03 17:27:19;;;;;;;8.20;6.30;;;;;;;;;;5023930;28;20424;-75
2024/04/03 17:29:45;;;;;;;2.87;1.50;;;;;;;;;;5019656;28;20512;-75
2024/04/03 17:32:11;;;;;;;4.43;1.90;;;;;;;;;;5008671;28;20426;-75
2024/04/03 17:34:37;;;;;;;2.20;1.53;;;;;;;;;;5023579;28;20468;-75
2024/04/03 17:37:03;;;;;;;10.20;2.67;;;;;;;;;;5031441;28;20425;-75
2024/04/03 17:39:29;;;;;;;4.60;1.70;;;;;;;;;;5025463;28;20772;-75
2024/04/03 17:41:55;;;;;;;3.00;1.90;;;;;;;;;;5032735;28;20420;-76
2024/04/03 17:44:21;;;;;;;3.13;1.40;;;;;;;;;;5012018;28;20501;-76
2024/04/03 17:46:47;;;;;;;1.70;1.47;;;;;;;;;;5029196;28;21011;-76
2024/04/03 17:49:13;;;;;;;1.70;1.50;;;;;;;;;;5031890;28;20425;-76
2024/04/03 17:51:39;;;;;;;3.90;1.60;;;;;;;;;;5032792;28;20413;-75
2024/04/03 17:54:06;;;;;;;2.43;1.93;;;;;;;;;;5030234;28;20424;-75
2024/04/03 17:56:32;;;;;;;3.23;1.90;;;;;;;;;;5033162;28;20425;-75
2024/04/03 17:58:58;;;;;;;1.77;1.70;;;;;;;;;;5028858;28;20476;-75
2024/04/03 18:01:24;;;;;;;4.20;1.70;;;;;;;;;;5030905;28;20428;-75
2024/04/03 18:03:50;;;;;;;2.60;1.20;;;;;;;;;;5029811;28;20448;-75
2024/04/03 18:06:17;;;;;;;2.40;2.03;;;;;;;;;;5011529;28;20999;-75
2024/04/03 18:08:43;;;;;;;7.43;4.70;;;;;;;;;;5023971;28;20425;-76
2024/04/03 18:11:09;;;;;;;9.07;3.50;;;;;;;;;;5021437;28;20474;-75
2024/04/03 18:13:35;;;;;;;2.63;2.37;;;;;;;;;;5012036;28;20422;-76
2024/04/03 18:16:01;;;;;;;15.40;6.63;;;;;;;;;;5013108;28;20465;-73
2024/04/03 18:18:29;;;;;;;14.67;6.10;;;;;;;;;;5019966;28;20405;-73
2024/04/03 18:20:55;;;;;;;26.40;9.87;;;;;;;;;;5030750;28;20409;-75
2024/04/03 18:23:21;;;;;;;21.37;8.00;;;;;;;;;;5016921;28;20425;-75
2024/04/03 18:25:47;;;;;;;20.50;8.87;;;;;;;;;;5017108;28;20428;-74
2024/04/03 18:28:13;;;;;;;11.10;5.40;;;;;;;;;;5011228;28;20425;-75
2024/04/03 18:30:39;;;;;;;10.80;5.40;;;;;;;;;;5012179;28;20422;-74
2024/04/03 18:33:05;;;;;;;12.80;6.60;;;;;;;;;;5012122;28;20437;-75
2024/04/03 18:35:32;;;;;;;11.03;5.13;;;;;;;;;;5011848;28;20854;-74
2024/04/03 18:37:58;;;;;;;8.83;4.07;;;;;;;;;;5013171;28;20460;-74
2024/04/03 18:40:24;;;;;;;6.40;3.03;;;;;;;;;;5002690;28;20418;-75
2024/04/03 18:42:50;;;;;;;8.00;2.63;;;;;;;;;;5027535;28;20437;-75
2024/04/03 18:45:17;;;;;;;5.10;2.97;;;;;;;;;;5030788;28;20452;-74
2024/04/03 18:47:44;;;;;;;10.80;4.17;;;;;;;;;;5031605;28;20620;-75
2024/04/03 18:50:11;;;;;;;6.93;3.97;;;;;;;;;;5031538;28;20421;-76
2024/04/03 18:52:37;;;;;;;8.67;3.67;;;;;;;;;;5031247;28;20428;-75
2024/04/03 18:55:04;;;;;;;3.77;2.20;;;;;;;;;;5031660;28;20554;-75
2024/04/03 18:57:30;;;;;;;6.83;2.47;;;;;;;;;;5027725;28;20441;-75
2024/04/03 18:59:57;;;;;;;8.93;2.43;;;;;;;;;;5029185;28;20421;-75
2024/04/03 19:02:23;;;;;;;7.23;3.50;;;;;;;;;;5024275;28;20444;-75
2024/04/03 19:04:51;;;;;;;14.03;3.77;;;;;;;;;;5013763;28;20921;-76
2024/04/03 19:07:18;;;;;;;9.27;3.87;;;;;;;;;;5019287;28;20533;-76
2024/04/03 19:09:45;;;;;;;5.40;3.23;;;;;;;;;;4998718;28;20441;-76
2024/04/03 19:12:11;;;;;;;8.50;2.40;;;;;;;;;;5015896;28;20449;-75
2024/04/03 19:14:37;;;;;;;14.17;3.17;;;;;;;;;;5015786;28;20477;-76
2024/04/03 19:17:03;;;;;;;4.63;1.83;;;;;;;;;;5032011;28;20409;-75
2024/04/03 19:19:29;;;;;;;4.63;2.30;;;;;;;;;;5023386;28;20429;-75
2024/04/03 19:21:56;;;;;;;4.27;2.47;;;;;;;;;;5036563;28;20397;-75
2024/04/03 19:24:22;;;;;;;3.90;2.20;;;;;;;;;;5029756;28;20517;-75
2024/04/03 19:26:48;;;;;;;5.40;2.10;;;;;;;;;;5025182;28;20444;-75
2024/04/03 19:29:14;;;;;;;3.27;2.17;;;;;;;;;;5051187;28;20417;-76
2024/04/03 19:31:40;;;;;;;2.27;1.80;;;;;;;;;;5030270;28;20856;-75
2024/04/03 19:34:06;;;;;;;4.33;1.90;;;;;;;;;;5022040;28;20438;-75
2024/04/03 19:36:35;;;;;;;2.93;1.70;;;;;;;;;;5020891;28;20422;-75
2024/04/03 19:39:01;;;;;;;1.80;1.63;;;;;;;;;;5050166;28;20429;-77